sensor_id;sensor_type;location;lat;lon;timestamp;temperature;humidity
21214;DHT22;10764;50.850;2.904;2022-09-03T00:02:18;23.80;57.00
21214;DHT22;10764;50.850;2.904;2022-09-03T00:07:51;23.80;57.10
21214;DHT22;10764;50.850;2.904;2022-09-03T00:10:51;23.80;57.20
21214;DHT22;10764;50.850;2.904;2022-09-03T00:13:30;23.80;57.30
21214;DHT22;10764;50.850;2.904;2022-09-03T00:15:59;23.80;57.40
21214;DHT22;10764;50.850;2.904;2022-09-03T00:18:32;23.80;57.40
21214;DHT22;10764;50.850;2.904;2022-09-03T00:21:08;24.30;57.60
21214;DHT22;10764;50.850;2.904;2022-09-03T00:23:41;23.80;57.40
21214;DHT22;10764;50.850;2.904;2022-09-03T00:28:55;23.80;56.80
21214;DHT22;10764;50.850;2.904;2022-09-03T00:31:32;23.80;57.40
21214;DHT22;10764;50.850;2.904;2022-09-03T00:36:52;23.80;57.80
21214;DHT22;10764;50.850;2.904;2022-09-03T00:39:23;23.80;57.00
21214;DHT22;10764;50.850;2.904;2022-09-03T00:42:20;23.80;58.40
21214;DHT22;10764;50.850;2.904;2022-09-03T00:48:10;23.80;58.10
21214;DHT22;10764;50.850;2.904;2022-09-03T00:53:18;23.80;57.80
21214;DHT22;10764;50.850;2.904;2022-09-03T01:01:44;23.80;57.80
21214;DHT22;10764;50.850;2.904;2022-09-03T01:04:28;23.80;57.30
21214;DHT22;10764;50.850;2.904;2022-09-03T01:07:48;23.80;57.90
21214;DHT22;10764;50.850;2.904;2022-09-03T01:10:21;23.80;57.90
21214;DHT22;10764;50.850;2.904;2022-09-03T01:13:13;23.80;57.90
21214;DHT22;10764;50.850;2.904;2022-09-03T01:21:44;23.80;58.00
21214;DHT22;10764;50.850;2.904;2022-09-03T01:24:33;23.80;58.20
21214;DHT22;10764;50.850;2.904;2022-09-03T01:27:36;23.80;58.10
21214;DHT22;10764;50.850;2.904;2022-09-03T01:30:11;23.80;58.10
21214;DHT22;10764;50.850;2.904;2022-09-03T01:35:41;23.80;58.20
21214;DHT22;10764;50.850;2.904;2022-09-03T01:41:07;23.80;58.30
21214;DHT22;10764;50.850;2.904;2022-09-03T01:50:03;23.60;56.10
21214;DHT22;10764;50.850;2.904;2022-09-03T01:52:54;23.50;55.10
21214;DHT22;10764;50.850;2.904;2022-09-03T01:58:19;25.20;55.00
21214;DHT22;10764;50.850;2.904;2022-09-03T02:00:53;23.30;53.10
21214;DHT22;10764;50.850;2.904;2022-09-03T02:03:23;23.30;51.90
21214;DHT22;10764;50.850;2.904;2022-09-03T02:05:50;25.10;53.20
21214;DHT22;10764;50.850;2.904;2022-09-03T02:08:19;23.20;51.50
21214;DHT22;10764;50.850;2.904;2022-09-03T02:10:55;23.20;52.60
21214;DHT22;10764;50.850;2.904;2022-09-03T02:13:37;23.20;53.00
21214;DHT22;10764;50.850;2.904;2022-09-03T02:16:14;23.20;53.20
21214;DHT22;10764;50.850;2.904;2022-09-03T02:18:44;23.30;53.30
21214;DHT22;10764;50.850;2.904;2022-09-03T02:21:16;23.20;53.30
21214;DHT22;10764;50.850;2.904;2022-09-03T02:23:46;23.20;52.50
21214;DHT22;10764;50.850;2.904;2022-09-03T02:26:17;23.20;52.40
21214;DHT22;10764;50.850;2.904;2022-09-03T02:28:46;23.10;52.20
21214;DHT22;10764;50.850;2.904;2022-09-03T02:31:13;23.10;51.90
21214;DHT22;10764;50.850;2.904;2022-09-03T02:33:44;23.10;52.60
21214;DHT22;10764;50.850;2.904;2022-09-03T02:36:13;23.30;52.20
21214;DHT22;10764;50.850;2.904;2022-09-03T02:38:43;23.00;51.90
21214;DHT22;10764;50.850;2.904;2022-09-03T02:41:11;23.00;51.00
21214;DHT22;10764;50.850;2.904;2022-09-03T02:43:50;23.00;51.60
21214;DHT22;10764;50.850;2.904;2022-09-03T02:46:26;23.00;51.40
21214;DHT22;10764;50.850;2.904;2022-09-03T02:48:55;24.80;52.10
21214;DHT22;10764;50.850;2.904;2022-09-03T02:51:22;22.50;51.00
21214;DHT22;10764;50.850;2.904;2022-09-03T02:53:49;23.00;51.70
21214;DHT22;10764;50.850;2.904;2022-09-03T02:56:16;23.00;52.10
21214;DHT22;10764;50.850;2.904;2022-09-03T02:58:43;23.50;52.50
21214;DHT22;10764;50.850;2.904;2022-09-03T03:01:11;23.10;54.00
21214;DHT22;10764;50.850;2.904;2022-09-03T03:03:50;23.10;53.90
21214;DHT22;10764;50.850;2.904;2022-09-03T03:06:17;23.20;55.40
21214;DHT22;10764;50.850;2.904;2022-09-03T03:08:48;24.60;56.40
21214;DHT22;10764;50.850;2.904;2022-09-03T03:11:16;23.90;56.00
21214;DHT22;10764;50.850;2.904;2022-09-03T03:13:46;23.30;56.00
21214;DHT22;10764;50.850;2.904;2022-09-03T03:16:14;23.30;56.60
21214;DHT22;10764;50.850;2.904;2022-09-03T03:18:42;23.20;56.40
21214;DHT22;10764;50.850;2.904;2022-09-03T03:21:14;23.30;56.70
21214;DHT22;10764;50.850;2.904;2022-09-03T03:23:42;24.00;56.90
21214;DHT22;10764;50.850;2.904;2022-09-03T03:26:16;23.30;56.70
21214;DHT22;10764;50.850;2.904;2022-09-03T03:28:46;23.30;56.70
21214;DHT22;10764;50.850;2.904;2022-09-03T03:31:19;23.20;56.00
21214;DHT22;10764;50.850;2.904;2022-09-03T03:33:55;23.30;56.70
21214;DHT22;10764;50.850;2.904;2022-09-03T03:36:25;23.30;56.80
21214;DHT22;10764;50.850;2.904;2022-09-03T03:38:57;23.30;56.60
21214;DHT22;10764;50.850;2.904;2022-09-03T03:41:30;23.30;56.50
21214;DHT22;10764;50.850;2.904;2022-09-03T03:44:07;23.30;56.40
21214;DHT22;10764;50.850;2.904;2022-09-03T03:46:39;23.30;56.10
21214;DHT22;10764;50.850;2.904;2022-09-03T03:49:07;23.30;57.00
21214;DHT22;10764;50.850;2.904;2022-09-03T03:51:35;22.90;56.90
21214;DHT22;10764;50.850;2.904;2022-09-03T03:54:03;23.60;57.20
21214;DHT22;10764;50.850;2.904;2022-09-03T03:56:32;23.30;56.90
21214;DHT22;10764;50.850;2.904;2022-09-03T03:58:59;23.30;56.30
21214;DHT22;10764;50.850;2.904;2022-09-03T04:01:27;26.10;59.00
21214;DHT22;10764;50.850;2.904;2022-09-03T04:03:55;23.30;56.70
21214;DHT22;10764;50.850;2.904;2022-09-03T04:06:22;23.60;57.40
21214;DHT22;10764;50.850;2.904;2022-09-03T04:08:50;24.70;58.30
21214;DHT22;10764;50.850;2.904;2022-09-03T04:11:19;23.30;57.60
21214;DHT22;10764;50.850;2.904;2022-09-03T04:13:47;23.30;57.50
21214;DHT22;10764;50.850;2.904;2022-09-03T04:16:22;23.30;57.60
21214;DHT22;10764;50.850;2.904;2022-09-03T04:18:50;23.30;57.70
21214;DHT22;10764;50.850;2.904;2022-09-03T04:21:23;23.30;57.80
21214;DHT22;10764;50.850;2.904;2022-09-03T04:23:53;23.30;57.90
21214;DHT22;10764;50.850;2.904;2022-09-03T04:26:27;23.30;58.10
21214;DHT22;10764;50.850;2.904;2022-09-03T04:28:59;23.30;57.80
21214;DHT22;10764;50.850;2.904;2022-09-03T04:31:27;23.30;58.60
21214;DHT22;10764;50.850;2.904;2022-09-03T04:33:54;23.30;58.10
21214;DHT22;10764;50.850;2.904;2022-09-03T04:36:23;23.30;57.20
21214;DHT22;10764;50.850;2.904;2022-09-03T04:38:53;26.60;59.70
21214;DHT22;10764;50.850;2.904;2022-09-03T04:41:26;23.30;57.90
21214;DHT22;10764;50.850;2.904;2022-09-03T04:43:55;23.30;57.10
21214;DHT22;10764;50.850;2.904;2022-09-03T04:46:25;23.30;57.80
21214;DHT22;10764;50.850;2.904;2022-09-03T04:48:53;23.30;57.80
21214;DHT22;10764;50.850;2.904;2022-09-03T04:51:22;23.30;57.90
21214;DHT22;10764;50.850;2.904;2022-09-03T04:53:58;23.30;57.80
21214;DHT22;10764;50.850;2.904;2022-09-03T04:56:28;23.30;57.90
21214;DHT22;10764;50.850;2.904;2022-09-03T04:59:00;23.30;58.00
21214;DHT22;10764;50.850;2.904;2022-09-03T05:01:30;23.30;58.20
21214;DHT22;10764;50.850;2.904;2022-09-03T05:03:58;23.30;58.20
21214;DHT22;10764;50.850;2.904;2022-09-03T05:06:27;23.30;58.30
21214;DHT22;10764;50.850;2.904;2022-09-03T05:08:55;23.30;58.30
21214;DHT22;10764;50.850;2.904;2022-09-03T05:11:23;23.40;58.60
21214;DHT22;10764;50.850;2.904;2022-09-03T05:13:52;23.30;58.50
21214;DHT22;10764;50.850;2.904;2022-09-03T05:16:20;23.30;58.40
21214;DHT22;10764;50.850;2.904;2022-09-03T05:18:53;26.40;59.90
21214;DHT22;10764;50.850;2.904;2022-09-03T05:21:20;23.80;58.40
21214;DHT22;10764;50.850;2.904;2022-09-03T05:23:49;23.30;58.30
21214;DHT22;10764;50.850;2.904;2022-09-03T05:26:19;23.30;58.40
21214;DHT22;10764;50.850;2.904;2022-09-03T05:28:46;23.30;58.40
21214;DHT22;10764;50.850;2.904;2022-09-03T05:31:16;23.40;58.60
21214;DHT22;10764;50.850;2.904;2022-09-03T05:33:46;25.60;59.70
21214;DHT22;10764;50.850;2.904;2022-09-03T05:36:16;23.40;58.10
21214;DHT22;10764;50.850;2.904;2022-09-03T05:38:43;23.30;58.00
21214;DHT22;10764;50.850;2.904;2022-09-03T05:41:12;23.30;58.10
21214;DHT22;10764;50.850;2.904;2022-09-03T05:43:40;23.30;58.90
21214;DHT22;10764;50.850;2.904;2022-09-03T05:46:10;24.30;59.30
21214;DHT22;10764;50.850;2.904;2022-09-03T05:48:39;23.40;59.00
21214;DHT22;10764;50.850;2.904;2022-09-03T05:51:11;23.40;59.10
21214;DHT22;10764;50.850;2.904;2022-09-03T05:53:39;23.30;59.20
21214;DHT22;10764;50.850;2.904;2022-09-03T05:56:09;23.30;59.40
21214;DHT22;10764;50.850;2.904;2022-09-03T05:58:40;23.40;59.40
21214;DHT22;10764;50.850;2.904;2022-09-03T06:03:41;23.40;59.10
21214;DHT22;10764;50.850;2.904;2022-09-03T06:06:09;23.80;59.90
21214;DHT22;10764;50.850;2.904;2022-09-03T06:08:36;23.40;59.10
21214;DHT22;10764;50.850;2.904;2022-09-03T06:11:07;23.40;59.80
21214;DHT22;10764;50.850;2.904;2022-09-03T06:13:35;23.40;59.90
21214;DHT22;10764;50.850;2.904;2022-09-03T06:16:04;23.40;59.80
21214;DHT22;10764;50.850;2.904;2022-09-03T06:18:33;23.40;59.90
21214;DHT22;10764;50.850;2.904;2022-09-03T06:21:04;23.50;60.40
21214;DHT22;10764;50.850;2.904;2022-09-03T06:23:33;23.40;60.20
21214;DHT22;10764;50.850;2.904;2022-09-03T06:26:07;23.40;60.50
21214;DHT22;10764;50.850;2.904;2022-09-03T06:28:38;23.50;60.70
21214;DHT22;10764;50.850;2.904;2022-09-03T06:31:08;23.40;60.70
21214;DHT22;10764;50.850;2.904;2022-09-03T06:33:36;23.40;60.60
21214;DHT22;10764;50.850;2.904;2022-09-03T06:36:05;23.30;59.80
21214;DHT22;10764;50.850;2.904;2022-09-03T06:38:35;23.10;60.60
21214;DHT22;10764;50.850;2.904;2022-09-03T06:41:11;23.30;60.20
21214;DHT22;10764;50.850;2.904;2022-09-03T06:43:41;23.30;60.10
21214;DHT22;10764;50.850;2.904;2022-09-03T06:46:13;23.30;60.10
21214;DHT22;10764;50.850;2.904;2022-09-03T06:48:42;23.30;60.20
21214;DHT22;10764;50.850;2.904;2022-09-03T06:51:13;23.30;60.00
21214;DHT22;10764;50.850;2.904;2022-09-03T06:53:43;23.30;61.00
21214;DHT22;10764;50.850;2.904;2022-09-03T06:56:12;23.30;60.00
21214;DHT22;10764;50.850;2.904;2022-09-03T06:58:45;23.30;61.20
21214;DHT22;10764;50.850;2.904;2022-09-03T07:01:20;25.90;62.80
21214;DHT22;10764;50.850;2.904;2022-09-03T07:03:52;23.30;60.30
21214;DHT22;10764;50.850;2.904;2022-09-03T07:06:25;23.30;62.10
21214;DHT22;10764;50.850;2.904;2022-09-03T07:08:53;23.30;61.10
21214;DHT22;10764;50.850;2.904;2022-09-03T07:11:22;23.30;60.90
21214;DHT22;10764;50.850;2.904;2022-09-03T07:13:53;23.40;60.00
21214;DHT22;10764;50.850;2.904;2022-09-03T07:16:25;23.30;60.70
21214;DHT22;10764;50.850;2.904;2022-09-03T07:18:53;23.40;59.90
21214;DHT22;10764;50.850;2.904;2022-09-03T07:21:26;23.40;60.60
21214;DHT22;10764;50.850;2.904;2022-09-03T07:23:55;23.40;60.40
21214;DHT22;10764;50.850;2.904;2022-09-03T07:26:27;23.40;60.50
21214;DHT22;10764;50.850;2.904;2022-09-03T07:28:58;23.40;61.20
21214;DHT22;10764;50.850;2.904;2022-09-03T07:31:30;21.20;59.10
21214;DHT22;10764;50.850;2.904;2022-09-03T07:33:59;24.10;60.60
21214;DHT22;10764;50.850;2.904;2022-09-03T07:36:27;23.40;59.40
21214;DHT22;10764;50.850;2.904;2022-09-03T07:39:00;23.40;60.20
21214;DHT22;10764;50.850;2.904;2022-09-03T07:41:29;23.50;60.20
21214;DHT22;10764;50.850;2.904;2022-09-03T07:43:59;23.40;60.00
21214;DHT22;10764;50.850;2.904;2022-09-03T07:46:32;23.50;59.40
21214;DHT22;10764;50.850;2.904;2022-09-03T07:49:00;23.50;60.00
21214;DHT22;10764;50.850;2.904;2022-09-03T07:51:33;24.00;60.10
21214;DHT22;10764;50.850;2.904;2022-09-03T07:54:03;23.50;59.90
21214;DHT22;10764;50.850;2.904;2022-09-03T07:56:33;23.50;59.80
21214;DHT22;10764;50.850;2.904;2022-09-03T07:59:02;23.50;59.80
21214;DHT22;10764;50.850;2.904;2022-09-03T08:01:32;24.30;59.90
21214;DHT22;10764;50.850;2.904;2022-09-03T08:04:01;23.60;59.60
21214;DHT22;10764;50.850;2.904;2022-09-03T08:06:32;23.60;59.20
21214;DHT22;10764;50.850;2.904;2022-09-03T08:09:02;23.60;59.10
21214;DHT22;10764;50.850;2.904;2022-09-03T08:11:35;23.60;59.70
21214;DHT22;10764;50.850;2.904;2022-09-03T08:14:05;23.60;59.10
21214;DHT22;10764;50.850;2.904;2022-09-03T08:16:38;23.60;59.70
21214;DHT22;10764;50.850;2.904;2022-09-03T08:19:05;23.60;59.20
21214;DHT22;10764;50.850;2.904;2022-09-03T08:21:33;23.10;59.70
21214;DHT22;10764;50.850;2.904;2022-09-03T08:24:00;23.60;59.90
21214;DHT22;10764;50.850;2.904;2022-09-03T08:26:35;23.60;59.90
21214;DHT22;10764;50.850;2.904;2022-09-03T08:29:03;23.60;59.90
21214;DHT22;10764;50.850;2.904;2022-09-03T08:31:31;23.60;60.00
21214;DHT22;10764;50.850;2.904;2022-09-03T08:34:00;23.60;60.00
21214;DHT22;10764;50.850;2.904;2022-09-03T08:36:34;23.60;60.00
21214;DHT22;10764;50.850;2.904;2022-09-03T08:39:04;23.70;60.00
21214;DHT22;10764;50.850;2.904;2022-09-03T08:49:47;23.70;59.90
21214;DHT22;10764;50.850;2.904;2022-09-03T08:52:31;23.70;60.00
21214;DHT22;10764;50.850;2.904;2022-09-03T08:58:00;23.70;59.80
21214;DHT22;10764;50.850;2.904;2022-09-03T09:06:22;23.70;59.80
21214;DHT22;10764;50.850;2.904;2022-09-03T09:09:13;23.70;59.80
21214;DHT22;10764;50.850;2.904;2022-09-03T09:22:26;25.40;61.10
21214;DHT22;10764;50.850;2.904;2022-09-03T09:24:58;23.80;59.90
21214;DHT22;10764;50.850;2.904;2022-09-03T09:27:27;23.80;59.90
21214;DHT22;10764;50.850;2.904;2022-09-03T09:29:58;23.80;60.10
21214;DHT22;10764;50.850;2.904;2022-09-03T09:32:29;23.80;59.90
21214;DHT22;10764;50.850;2.904;2022-09-03T09:34:56;23.80;60.00
21214;DHT22;10764;50.850;2.904;2022-09-03T09:37:23;23.80;60.00
21214;DHT22;10764;50.850;2.904;2022-09-03T09:39:59;23.80;60.10
21214;DHT22;10764;50.850;2.904;2022-09-03T09:42:26;23.80;59.80
21214;DHT22;10764;50.850;2.904;2022-09-03T09:44:56;23.80;59.20
21214;DHT22;10764;50.850;2.904;2022-09-03T09:47:29;24.50;60.50
21214;DHT22;10764;50.850;2.904;2022-09-03T09:49:59;23.80;59.90
21214;DHT22;10764;50.850;2.904;2022-09-03T09:52:28;23.80;59.80
21214;DHT22;10764;50.850;2.904;2022-09-03T09:55:08;23.80;59.80
21214;DHT22;10764;50.850;2.904;2022-09-03T09:57:35;23.80;59.80
21214;DHT22;10764;50.850;2.904;2022-09-03T10:00:06;23.80;59.90
21214;DHT22;10764;50.850;2.904;2022-09-03T10:02:40;23.90;59.20
21214;DHT22;10764;50.850;2.904;2022-09-03T10:05:26;23.80;59.80
21214;DHT22;10764;50.850;2.904;2022-09-03T10:07:58;23.80;59.80
21214;DHT22;10764;50.850;2.904;2022-09-03T10:10:26;23.80;59.70
21214;DHT22;10764;50.850;2.904;2022-09-03T10:13:13;23.90;59.80
21214;DHT22;10764;50.850;2.904;2022-09-03T10:16:11;23.90;59.80
21214;DHT22;10764;50.850;2.904;2022-09-03T10:18:41;23.90;59.60
21214;DHT22;10764;50.850;2.904;2022-09-03T10:21:19;23.90;59.70
21214;DHT22;10764;50.850;2.904;2022-09-03T10:23:59;21.60;58.50
21214;DHT22;10764;50.850;2.904;2022-09-03T10:26:35;23.90;59.70
21214;DHT22;10764;50.850;2.904;2022-09-03T10:29:04;23.80;59.00
21214;DHT22;10764;50.850;2.904;2022-09-03T10:50:19;23.90;59.50
21214;DHT22;10764;50.850;2.904;2022-09-03T10:53:13;24.00;59.60
21214;DHT22;10764;50.850;2.904;2022-09-03T10:56:04;23.90;59.50
21214;DHT22;10764;50.850;2.904;2022-09-03T11:04:37;23.90;58.90
21214;DHT22;10764;50.850;2.904;2022-09-03T11:07:11;24.00;59.50
21214;DHT22;10764;50.850;2.904;2022-09-03T11:09:52;24.30;59.80
21214;DHT22;10764;50.850;2.904;2022-09-03T11:12:28;23.90;58.90
21214;DHT22;10764;50.850;2.904;2022-09-03T11:15:06;23.90;59.60
21214;DHT22;10764;50.850;2.904;2022-09-03T11:17:52;24.00;59.70
21214;DHT22;10764;50.850;2.904;2022-09-03T11:20:24;23.90;59.50
21214;DHT22;10764;50.850;2.904;2022-09-03T11:22:54;24.00;59.60
21214;DHT22;10764;50.850;2.904;2022-09-03T11:25:30;24.00;59.50
21214;DHT22;10764;50.850;2.904;2022-09-03T11:28:25;24.00;58.90
21214;DHT22;10764;50.850;2.904;2022-09-03T11:31:33;24.00;59.60
21214;DHT22;10764;50.850;2.904;2022-09-03T11:34:11;24.00;59.70
21214;DHT22;10764;50.850;2.904;2022-09-03T11:40:12;24.00;59.80
21214;DHT22;10764;50.850;2.904;2022-09-03T11:42:43;24.00;59.90
21214;DHT22;10764;50.850;2.904;2022-09-03T11:47:58;24.10;59.20
21214;DHT22;10764;50.850;2.904;2022-09-03T11:50:26;26.50;61.80
21214;DHT22;10764;50.850;2.904;2022-09-03T11:53:10;24.10;59.90
21214;DHT22;10764;50.850;2.904;2022-09-03T11:58:35;24.10;59.40
21214;DHT22;10764;50.850;2.904;2022-09-03T12:01:11;24.10;60.00
21214;DHT22;10764;50.850;2.904;2022-09-03T12:03:58;24.10;59.50
21214;DHT22;10764;50.850;2.904;2022-09-03T12:09:52;24.10;60.00
21214;DHT22;10764;50.850;2.904;2022-09-03T12:12:41;24.10;60.20
21214;DHT22;10764;50.850;2.904;2022-09-03T12:16:17;24.20;60.30
21214;DHT22;10764;50.850;2.904;2022-09-03T12:18:28;24.90;60.60
21214;DHT22;10764;50.850;2.904;2022-09-03T12:23:33;24.10;60.20
21214;DHT22;10764;50.850;2.904;2022-09-03T12:26:06;24.10;60.00
21214;DHT22;10764;50.850;2.904;2022-09-03T12:28:36;24.10;59.90
21214;DHT22;10764;50.850;2.904;2022-09-03T12:31:19;24.10;60.00
21214;DHT22;10764;50.850;2.904;2022-09-03T12:33:59;24.10;59.80
21214;DHT22;10764;50.850;2.904;2022-09-03T12:36:48;24.20;59.80
21214;DHT22;10764;50.850;2.904;2022-09-03T12:39:24;26.70;61.80
21214;DHT22;10764;50.850;2.904;2022-09-03T12:42:16;24.20;59.70
21214;DHT22;10764;50.850;2.904;2022-09-03T12:44:45;24.20;59.80
21214;DHT22;10764;50.850;2.904;2022-09-03T12:47:14;24.20;59.90
21214;DHT22;10764;50.850;2.904;2022-09-03T12:50:15;24.20;59.00
21214;DHT22;10764;50.850;2.904;2022-09-03T12:53:00;24.20;59.60
21214;DHT22;10764;50.850;2.904;2022-09-03T12:55:33;26.90;61.70
21214;DHT22;10764;50.850;2.904;2022-09-03T12:58:16;24.20;59.80
21214;DHT22;10764;50.850;2.904;2022-09-03T13:00:56;24.20;59.10
21214;DHT22;10764;50.850;2.904;2022-09-03T13:03:44;24.30;59.20
21214;DHT22;10764;50.850;2.904;2022-09-03T13:06:17;24.30;59.70
21214;DHT22;10764;50.850;2.904;2022-09-03T13:08:56;23.80;59.50
21214;DHT22;10764;50.850;2.904;2022-09-03T13:11:25;24.20;59.70
21214;DHT22;10764;50.850;2.904;2022-09-03T13:14:01;24.20;59.80
21214;DHT22;10764;50.850;2.904;2022-09-03T13:19:11;24.10;59.80
21214;DHT22;10764;50.850;2.904;2022-09-03T13:27:27;24.80;57.80
21214;DHT22;10764;50.850;2.904;2022-09-03T13:30:15;23.80;56.30
21214;DHT22;10764;50.850;2.904;2022-09-03T13:38:24;23.70;55.30
21214;DHT22;10764;50.850;2.904;2022-09-03T13:40:54;23.70;55.40
21214;DHT22;10764;50.850;2.904;2022-09-03T13:43:50;23.70;55.40
21214;DHT22;10764;50.850;2.904;2022-09-03T13:46:23;23.70;55.30
21214;DHT22;10764;50.850;2.904;2022-09-03T13:48:58;23.70;55.60
21214;DHT22;10764;50.850;2.904;2022-09-03T13:51:58;23.70;55.50
21214;DHT22;10764;50.850;2.904;2022-09-03T13:54:30;24.00;56.00
21214;DHT22;10764;50.850;2.904;2022-09-03T13:57:22;23.70;56.00
21214;DHT22;10764;50.850;2.904;2022-09-03T14:00:04;23.60;55.60
21214;DHT22;10764;50.850;2.904;2022-09-03T14:05:42;23.60;55.50
21214;DHT22;10764;50.850;2.904;2022-09-03T14:08:33;23.60;56.00
21214;DHT22;10764;50.850;2.904;2022-09-03T14:11:08;23.60;55.90
21214;DHT22;10764;50.850;2.904;2022-09-03T14:19:13;23.60;55.90
21214;DHT22;10764;50.850;2.904;2022-09-03T14:25:16;23.70;56.90
21214;DHT22;10764;50.850;2.904;2022-09-03T14:27:43;23.60;56.50
21214;DHT22;10764;50.850;2.904;2022-09-03T14:36:41;23.60;56.40
21214;DHT22;10764;50.850;2.904;2022-09-03T14:49:50;23.70;57.00
21214;DHT22;10764;50.850;2.904;2022-09-03T15:01:09;23.90;56.60
21214;DHT22;10764;50.850;2.904;2022-09-03T15:06:44;23.90;57.30
21214;DHT22;10764;50.850;2.904;2022-09-03T15:12:02;23.90;57.40
21214;DHT22;10764;50.850;2.904;2022-09-03T15:14:44;24.30;57.80
21214;DHT22;10764;50.850;2.904;2022-09-03T15:17:45;23.90;57.50
21214;DHT22;10764;50.850;2.904;2022-09-03T15:20:36;24.00;57.00
21214;DHT22;10764;50.850;2.904;2022-09-03T15:31:31;24.00;57.80
21214;DHT22;10764;50.850;2.904;2022-09-03T15:34:18;24.00;57.80
21214;DHT22;10764;50.850;2.904;2022-09-03T15:36:53;24.00;57.80
21214;DHT22;10764;50.850;2.904;2022-09-03T15:39:32;24.00;58.00
21214;DHT22;10764;50.850;2.904;2022-09-03T15:42:05;24.00;58.00
21214;DHT22;10764;50.850;2.904;2022-09-03T15:44:39;24.00;58.70
21214;DHT22;10764;50.850;2.904;2022-09-03T15:47:12;24.00;58.00
21214;DHT22;10764;50.850;2.904;2022-09-03T15:55:36;24.00;58.10
21214;DHT22;10764;50.850;2.904;2022-09-03T16:00:48;23.90;58.30
21214;DHT22;10764;50.850;2.904;2022-09-03T16:03:21;23.90;57.60
21214;DHT22;10764;50.850;2.904;2022-09-03T16:05:56;24.00;57.70
21214;DHT22;10764;50.850;2.904;2022-09-03T16:08:42;24.00;58.40
21214;DHT22;10764;50.850;2.904;2022-09-03T16:14:12;24.00;58.50
21214;DHT22;10764;50.850;2.904;2022-09-03T16:22:06;23.90;58.50
21214;DHT22;10764;50.850;2.904;2022-09-03T16:27:10;23.90;58.80
21214;DHT22;10764;50.850;2.904;2022-09-03T16:29:40;23.90;58.10
21214;DHT22;10764;50.850;2.904;2022-09-03T16:38:03;23.90;58.80
21214;DHT22;10764;50.850;2.904;2022-09-03T16:40:46;21.20;57.50
21214;DHT22;10764;50.850;2.904;2022-09-03T16:43:27;23.90;58.70
21214;DHT22;10764;50.850;2.904;2022-09-03T16:46:21;24.20;58.90
21214;DHT22;10764;50.850;2.904;2022-09-03T16:49:31;23.90;58.90
21214;DHT22;10764;50.850;2.904;2022-09-03T17:01:05;24.00;59.10
21214;DHT22;10764;50.850;2.904;2022-09-03T17:09:26;23.90;59.30
21214;DHT22;10764;50.850;2.904;2022-09-03T17:15:08;24.00;59.40
21214;DHT22;10764;50.850;2.904;2022-09-03T17:25:39;25.20;60.70
21214;DHT22;10764;50.850;2.904;2022-09-03T17:28:43;24.00;59.80
21214;DHT22;10764;50.850;2.904;2022-09-03T17:31:40;24.00;60.00
21214;DHT22;10764;50.850;2.904;2022-09-03T17:34:44;24.00;59.90
21214;DHT22;10764;50.850;2.904;2022-09-03T17:37:22;24.00;60.00
21214;DHT22;10764;50.850;2.904;2022-09-03T17:42:32;24.00;60.40
21214;DHT22;10764;50.850;2.904;2022-09-03T17:45:14;24.00;59.60
21214;DHT22;10764;50.850;2.904;2022-09-03T17:51:04;24.00;60.40
21214;DHT22;10764;50.850;2.904;2022-09-03T17:54:04;24.00;60.60
21214;DHT22;10764;50.850;2.904;2022-09-03T17:56:44;24.00;61.50
21214;DHT22;10764;50.850;2.904;2022-09-03T18:02:31;24.00;60.80
21214;DHT22;10764;50.850;2.904;2022-09-03T18:05:29;24.00;60.80
21214;DHT22;10764;50.850;2.904;2022-09-03T18:08:10;24.00;61.00
21214;DHT22;10764;50.850;2.904;2022-09-03T18:10:58;24.00;60.90
21214;DHT22;10764;50.850;2.904;2022-09-03T18:14:03;24.00;60.90
21214;DHT22;10764;50.850;2.904;2022-09-03T18:16:34;24.00;60.30
21214;DHT22;10764;50.850;2.904;2022-09-03T18:21:46;24.00;61.00
21214;DHT22;10764;50.850;2.904;2022-09-03T18:24:53;24.00;61.10
21214;DHT22;10764;50.850;2.904;2022-09-03T18:28:02;24.00;61.20
21214;DHT22;10764;50.850;2.904;2022-09-03T18:30:51;24.00;61.20
21214;DHT22;10764;50.850;2.904;2022-09-03T18:33:37;24.00;61.30
21214;DHT22;10764;50.850;2.904;2022-09-03T18:36:24;24.00;60.60
21214;DHT22;10764;50.850;2.904;2022-09-03T18:39:26;24.00;61.50
21214;DHT22;10764;50.850;2.904;2022-09-03T18:51:57;24.00;61.50
21214;DHT22;10764;50.850;2.904;2022-09-03T18:55:03;24.00;61.50
21214;DHT22;10764;50.850;2.904;2022-09-03T19:07:08;24.00;61.00
21214;DHT22;10764;50.850;2.904;2022-09-03T19:10:09;24.00;61.80
21214;DHT22;10764;50.850;2.904;2022-09-03T19:13:26;24.00;61.80
21214;DHT22;10764;50.850;2.904;2022-09-03T19:19:27;24.00;61.80
21214;DHT22;10764;50.850;2.904;2022-09-03T19:22:33;24.00;61.90
21214;DHT22;10764;50.850;2.904;2022-09-03T19:25:19;24.00;61.80
21214;DHT22;10764;50.850;2.904;2022-09-03T19:34:35;24.00;61.20
21214;DHT22;10764;50.850;2.904;2022-09-03T19:46:21;24.10;62.30
21214;DHT22;10764;50.850;2.904;2022-09-03T19:55:52;24.00;62.40
21214;DHT22;10764;50.850;2.904;2022-09-03T19:59:20;23.90;61.80
21214;DHT22;10764;50.850;2.904;2022-09-03T20:02:04;23.20;60.50
21214;DHT22;10764;50.850;2.904;2022-09-03T20:04:57;23.80;60.10
21214;DHT22;10764;50.850;2.904;2022-09-03T20:07:50;23.80;59.90
21214;DHT22;10764;50.850;2.904;2022-09-03T20:10:37;23.70;59.70
21214;DHT22;10764;50.850;2.904;2022-09-03T20:13:12;24.40;59.90
21214;DHT22;10764;50.850;2.904;2022-09-03T20:16:00;23.70;58.60
21214;DHT22;10764;50.850;2.904;2022-09-03T20:27:35;23.60;58.30
21214;DHT22;10764;50.850;2.904;2022-09-03T20:30:07;23.60;57.90
21214;DHT22;10764;50.850;2.904;2022-09-03T20:38:31;23.50;57.90
21214;DHT22;10764;50.850;2.904;2022-09-03T20:42:19;23.50;57.70
21214;DHT22;10764;50.850;2.904;2022-09-03T20:52:57;23.60;58.20
21214;DHT22;10764;50.850;2.904;2022-09-03T20:55:33;23.70;58.10
21214;DHT22;10764;50.850;2.904;2022-09-03T21:01:14;23.80;59.50
21214;DHT22;10764;50.850;2.904;2022-09-03T21:10:17;23.80;60.20
21214;DHT22;10764;50.850;2.904;2022-09-03T21:15:23;23.80;60.90
21214;DHT22;10764;50.850;2.904;2022-09-03T21:20:46;23.80;61.10
21214;DHT22;10764;50.850;2.904;2022-09-03T21:23:20;23.80;61.20
21214;DHT22;10764;50.850;2.904;2022-09-03T21:25:59;23.80;61.40
21214;DHT22;10764;50.850;2.904;2022-09-03T21:28:38;23.80;61.40
21214;DHT22;10764;50.850;2.904;2022-09-03T21:31:18;23.80;61.50
21214;DHT22;10764;50.850;2.904;2022-09-03T21:33:47;23.80;61.50
21214;DHT22;10764;50.850;2.904;2022-09-03T21:36:24;23.80;61.70
21214;DHT22;10764;50.850;2.904;2022-09-03T21:38:57;23.50;61.40
21214;DHT22;10764;50.850;2.904;2022-09-03T21:41:43;23.80;60.90
21214;DHT22;10764;50.850;2.904;2022-09-03T21:44:20;24.50;62.20
21214;DHT22;10764;50.850;2.904;2022-09-03T21:46:57;23.90;62.00
21214;DHT22;10764;50.850;2.904;2022-09-03T21:50:02;23.90;61.80